Cave City, Kentucky
Current Conditions -  °F | °C
As of 4:15 PM on Monday 20 Oct 2014 (Local Time) from KGLW Reporting Station
Clear Clear  
Wind Chill: 65°   Ceiling: Unl
Heat Index: 65°   Visibility: 10mi
Dew Point: 49°   Wind: 14mph
Humidity: 56%   Direction: 220°SW
Pressure: 29.95"   Gusts: 17mph
Location:  37.14°N, 85.96°W
Report Text: KGLW 202115Z AUTO 22012G15KT 10SM CLR 18/09 A2995 RMK AO2 T01820093
Loading
Personal Weather Stations






























Interactive Weather Map New forecast layout! Learn more

10-Day Weather Forecast

Advertisements
Track Severe Weather on mobile